createdAt,value
2022-11-09T00:00:19.203Z,31.50
2022-11-09T00:01:21.466Z,31.70
2022-11-09T00:02:23.572Z,33.30
2022-11-09T00:03:26.205Z,31.10
2022-11-09T00:04:28.510Z,31.36
2022-11-09T00:05:30.925Z,32.50
2022-11-09T00:06:34.224Z,32.00
2022-11-09T00:07:36.667Z,26.90
2022-11-09T00:08:39.672Z,33.70
2022-11-09T00:09:41.801Z,32.45
2022-11-09T00:10:44.715Z,30.90
2022-11-09T00:11:46.815Z,30.20
2022-11-09T00:12:49.017Z,32.30
2022-11-09T00:13:52.029Z,29.90
2022-11-09T00:14:54.191Z,30.40
2022-11-09T00:15:59.287Z,26.80
2022-11-09T00:17:01.474Z,30.60
2022-11-09T00:18:03.940Z,30.20
2022-11-09T00:19:06.652Z,30.82
2022-11-09T00:20:10.457Z,30.40
2022-11-09T00:22:30.684Z,31.80
2022-11-09T00:23:32.931Z,30.90
2022-11-09T00:24:36.505Z,30.00
2022-11-09T00:25:38.899Z,29.64
2022-11-09T00:26:41.214Z,30.80
2022-11-09T00:27:43.837Z,31.60
2022-11-09T00:28:45.975Z,31.00
2022-11-09T00:29:48.529Z,31.10
2022-11-09T00:31:00.877Z,30.30
2022-11-09T00:32:03.817Z,32.00
2022-11-09T00:33:06.312Z,27.64
2022-11-09T00:34:08.409Z,30.30
2022-11-09T00:35:10.497Z,32.70
2022-11-09T00:36:13.859Z,31.70
2022-11-09T00:37:16.721Z,24.20
2022-11-09T00:38:19.470Z,31.00
2022-11-09T00:39:22.675Z,25.36
2022-11-09T00:40:24.937Z,26.60
2022-11-09T00:41:27.522Z,30.90
2022-11-09T00:42:30.766Z,25.10
2022-11-09T00:43:33.076Z,29.30
2022-11-09T00:44:35.568Z,27.30
2022-11-09T00:45:37.628Z,29.40
2022-11-09T00:46:39.839Z,29.60
2022-11-09T00:47:43.068Z,29.10
2022-11-09T00:48:45.548Z,29.70
2022-11-09T00:49:48.245Z,29.36
2022-11-09T00:50:54.920Z,26.90
2022-11-09T00:51:57.200Z,29.20
2022-11-09T00:53:00.353Z,29.90
2022-11-09T00:54:02.520Z,29.50
2022-11-09T00:55:05.657Z,30.70
2022-11-09T00:56:10.424Z,26.73
2022-11-09T00:57:13.584Z,30.50
2022-11-09T00:58:17.627Z,25.80
2022-11-09T00:59:19.921Z,25.70
2022-11-09T01:00:23.284Z,30.00
2022-11-09T01:01:26.342Z,24.09
2022-11-09T01:02:28.631Z,28.10
2022-11-09T01:03:32.352Z,26.70
2022-11-09T01:04:36.236Z,27.90
2022-11-09T01:05:38.428Z,26.40
2022-11-09T01:06:40.683Z,29.30
2022-11-09T01:07:44.783Z,26.60
2022-11-09T01:08:47.370Z,25.90
2022-11-09T01:09:50.332Z,28.20
2022-11-09T01:10:52.639Z,22.30
2022-11-09T01:11:56.685Z,24.80
2022-11-09T01:12:58.877Z,27.90
2022-11-09T01:14:00.900Z,29.40
2022-11-09T01:15:04.637Z,30.09
2022-11-09T01:16:11.788Z,29.40
2022-11-09T01:17:14.049Z,24.60
2022-11-09T01:18:16.840Z,27.80
2022-11-09T01:19:18.904Z,29.64
2022-11-09T01:20:22.182Z,27.00
2022-11-09T01:21:26.388Z,27.80
2022-11-09T01:22:28.661Z,27.10
2022-11-09T01:23:30.795Z,22.50
2022-11-09T01:24:33.644Z,26.70
2022-11-09T01:25:36.341Z,24.30
2022-11-09T01:26:39.398Z,25.90
2022-11-09T01:27:41.503Z,28.60
2022-11-09T01:28:43.599Z,26.00
2022-11-09T01:29:46.719Z,28.60
2022-11-09T01:30:48.979Z,25.90
2022-11-09T01:31:53.056Z,27.00
2022-11-09T01:32:55.402Z,26.30
2022-11-09T01:33:57.485Z,26.70
2022-11-09T01:34:59.670Z,25.20
2022-11-09T01:36:04.620Z,22.33
2022-11-09T01:37:06.893Z,29.30
2022-11-09T01:38:09.200Z,26.50
2022-11-09T01:39:11.306Z,28.40
2022-11-09T01:40:14.532Z,22.55
2022-11-09T01:42:33.348Z,27.90
2022-11-09T01:43:36.702Z,27.70
2022-11-09T01:44:40.759Z,26.40
2022-11-09T01:45:45.228Z,26.40
2022-11-09T01:47:00.292Z,15.70
2022-11-09T01:48:06.787Z,23.40
2022-11-09T01:49:12.859Z,26.80
2022-11-09T01:50:19.211Z,30.20
2022-11-09T01:52:41.606Z,25.30
2022-11-09T01:53:48.358Z,22.90
2022-11-09T01:54:58.845Z,27.20
2022-11-09T01:56:04.384Z,27.80
2022-11-09T01:57:11.865Z,25.00
2022-11-09T01:58:24.837Z,28.10
2022-11-09T01:59:29.905Z,27.70
2022-11-09T02:00:33.384Z,26.70
2022-11-09T02:01:36.532Z,27.50
2022-11-09T02:02:41.743Z,23.20
2022-11-09T02:05:10.173Z,26.70
2022-11-09T02:06:13.996Z,23.70
2022-11-09T02:07:16.483Z,25.00
2022-11-09T02:08:19.993Z,23.90
2022-11-09T02:11:08.849Z,22.60
2022-11-09T02:12:11.420Z,26.30
2022-11-09T02:13:15.560Z,18.60
2022-11-09T02:14:19.764Z,27.40
2022-11-09T02:15:25.817Z,25.20
2022-11-09T02:16:32.279Z,22.20
2022-11-09T02:17:35.927Z,23.73
2022-11-09T02:20:12.342Z,26.50
2022-11-09T02:21:14.618Z,24.20
2022-11-09T02:22:16.737Z,25.80
2022-11-09T02:23:19.338Z,21.80
2022-11-09T02:24:22.360Z,24.36
2022-11-09T02:25:24.913Z,22.80
2022-11-09T02:26:35.903Z,24.00
2022-11-09T02:27:38.161Z,25.50
2022-11-09T02:28:41.277Z,28.20
2022-11-09T02:29:44.354Z,21.00
2022-11-09T02:30:49.137Z,26.20
2022-11-09T02:31:56.822Z,24.60
2022-11-09T02:32:59.135Z,24.40
2022-11-09T02:35:22.698Z,26.10
2022-11-09T02:36:24.978Z,24.40
2022-11-09T02:37:34.938Z,26.30
2022-11-09T02:38:38.153Z,26.20
2022-11-09T02:39:40.896Z,22.70
2022-11-09T02:40:47.226Z,20.60
2022-11-09T02:41:56.881Z,27.40
2022-11-09T02:43:01.966Z,25.50
2022-11-09T02:44:04.428Z,24.00
2022-11-09T02:45:07.922Z,25.40
2022-11-09T02:46:12.559Z,27.50
2022-11-09T02:47:15.560Z,24.10
2022-11-09T02:48:20.081Z,22.10
2022-11-09T02:49:22.790Z,22.80
2022-11-09T02:50:25.245Z,24.00
2022-11-09T02:51:28.000Z,24.20
2022-11-09T02:52:30.334Z,24.70
2022-11-09T02:53:33.012Z,24.30
2022-11-09T02:54:35.798Z,21.40
2022-11-09T02:55:39.274Z,23.80
2022-11-09T02:56:41.670Z,20.50
2022-11-09T02:57:44.392Z,22.50
2022-11-09T02:58:48.332Z,16.60
2022-11-09T02:59:52.164Z,24.40
2022-11-09T03:00:56.818Z,22.50
2022-11-09T03:01:59.811Z,22.50
2022-11-09T03:03:05.064Z,22.50
2022-11-09T03:04:07.466Z,22.10
2022-11-09T03:05:10.357Z,24.09
2022-11-09T03:06:14.419Z,21.10
2022-11-09T03:07:18.210Z,22.70
2022-11-09T03:08:21.636Z,22.70
2022-11-09T03:09:24.990Z,22.60
2022-11-09T03:10:27.790Z,19.90
2022-11-09T03:11:30.421Z,23.60
2022-11-09T03:12:34.485Z,19.20
2022-11-09T03:13:42.289Z,24.40
2022-11-09T03:14:44.646Z,23.60
2022-11-09T03:15:46.841Z,23.90
2022-11-09T03:16:50.961Z,21.80
2022-11-09T03:17:54.833Z,23.30
2022-11-09T03:18:57.385Z,22.70
2022-11-09T03:19:59.670Z,20.50
2022-11-09T03:21:03.562Z,21.60
2022-11-09T03:22:05.813Z,22.10
2022-11-09T03:23:07.835Z,20.40
2022-11-09T03:24:10.357Z,24.80
2022-11-09T03:25:13.272Z,21.40
2022-11-09T03:26:16.228Z,20.36
2022-11-09T03:27:18.786Z,19.45
2022-11-09T03:28:22.235Z,18.40
2022-11-09T03:29:25.944Z,21.10
2022-11-09T03:30:31.151Z,21.60
2022-11-09T03:31:33.512Z,19.30
2022-11-09T03:32:37.639Z,21.30
2022-11-09T03:33:41.388Z,20.70
2022-11-09T03:34:44.044Z,20.70
2022-11-09T03:35:47.295Z,20.30
2022-11-09T03:36:51.354Z,21.30
2022-11-09T03:37:53.725Z,21.00
2022-11-09T03:38:57.109Z,21.90
2022-11-09T03:39:59.384Z,20.50
2022-11-09T03:41:02.533Z,17.64
2022-11-09T03:42:05.627Z,21.55
2022-11-09T03:43:07.825Z,18.70
2022-11-09T03:44:10.229Z,20.50
2022-11-09T03:45:13.118Z,1.30
2022-11-09T03:46:17.214Z,23.00
2022-11-09T03:47:20.311Z,22.40
2022-11-09T03:48:23.149Z,23.40
2022-11-09T03:49:25.824Z,18.18
2022-11-09T03:50:29.271Z,20.09
2022-11-09T03:51:32.526Z,15.20
2022-11-09T03:52:34.964Z,17.80
2022-11-09T03:53:37.195Z,20.00
2022-11-09T03:54:39.298Z,17.90
2022-11-09T03:55:41.412Z,16.90
2022-11-09T03:56:43.638Z,18.30
2022-11-09T03:57:45.629Z,17.90
2022-11-09T03:58:47.725Z,17.80
2022-11-09T03:59:49.837Z,9.00
2022-11-09T04:00:52.031Z,15.90
2022-11-09T04:01:54.080Z,20.30
2022-11-09T04:02:56.398Z,18.70
2022-11-09T04:03:58.992Z,20.40
2022-11-09T04:05:03.184Z,19.60
2022-11-09T04:06:06.118Z,18.20
2022-11-09T04:07:10.141Z,19.20
2022-11-09T04:08:12.406Z,14.90
2022-11-09T04:09:14.618Z,17.30
2022-11-09T04:10:17.351Z,20.40
2022-11-09T04:11:19.342Z,16.60
2022-11-09T04:12:21.551Z,18.90
2022-11-09T04:13:24.229Z,19.90
2022-11-09T04:14:26.739Z,19.64
2022-11-09T04:15:29.028Z,20.90
2022-11-09T04:16:31.169Z,18.30
2022-11-09T04:17:33.273Z,20.70
2022-11-09T04:18:35.467Z,19.20
2022-11-09T04:19:37.641Z,19.50
2022-11-09T04:20:40.815Z,17.90
2022-11-09T04:21:43.046Z,19.90
2022-11-09T04:22:45.051Z,16.30
2022-11-09T04:23:48.377Z,18.90
2022-11-09T04:24:51.053Z,20.10
2022-11-09T04:25:53.142Z,18.00
2022-11-09T04:26:55.338Z,21.50
2022-11-09T04:27:57.749Z,19.00
2022-11-09T04:29:00.389Z,20.20
2022-11-09T04:30:02.588Z,16.80
2022-11-09T04:31:05.967Z,18.80
2022-11-09T04:32:09.124Z,17.80
2022-11-09T04:33:11.256Z,18.20
2022-11-09T04:34:13.469Z,19.00
2022-11-09T04:35:15.803Z,21.00
2022-11-09T04:36:18.107Z,16.90
2022-11-09T04:37:21.210Z,17.22
2022-11-09T04:38:24.351Z,17.00
2022-11-09T04:39:26.975Z,16.70
2022-11-09T04:40:30.980Z,17.90
2022-11-09T04:41:33.174Z,16.60
2022-11-09T04:42:35.357Z,18.20
2022-11-09T04:43:37.446Z,16.60
2022-11-09T04:44:39.426Z,17.89
2022-11-09T04:45:41.908Z,16.60
2022-11-09T04:46:45.017Z,19.50
2022-11-09T04:47:47.463Z,16.91
2022-11-09T04:48:49.676Z,18.50
2022-11-09T04:49:53.003Z,18.20
2022-11-09T04:52:12.145Z,18.50
2022-11-09T04:53:14.771Z,20.10
2022-11-09T04:54:17.022Z,17.50
2022-11-09T04:55:19.129Z,17.10
2022-11-09T04:56:21.311Z,19.40
2022-11-09T04:57:23.622Z,18.60
2022-11-09T04:58:25.836Z,17.80
2022-11-09T04:59:28.041Z,14.80
2022-11-09T05:00:30.211Z,11.40
2022-11-09T05:01:32.234Z,18.30
2022-11-09T05:02:34.319Z,18.20
2022-11-09T05:03:37.769Z,14.20
2022-11-09T05:04:40.011Z,17.50
2022-11-09T05:05:48.022Z,17.70
2022-11-09T05:06:48.035Z,18.30
2022-11-09T05:07:51.144Z,18.80
2022-11-09T05:08:54.031Z,18.00
2022-11-09T05:09:56.193Z,16.50
2022-11-09T05:10:58.616Z,14.70
2022-11-09T05:12:02.112Z,13.30
2022-11-09T05:13:05.965Z,16.91
2022-11-09T05:14:08.153Z,17.80
2022-11-09T05:15:10.793Z,17.00
2022-11-09T05:16:13.915Z,18.10
2022-11-09T05:17:15.949Z,18.10
2022-11-09T05:18:17.878Z,19.89
2022-11-09T05:19:19.975Z,18.90
2022-11-09T05:20:22.809Z,15.50
2022-11-09T05:21:24.890Z,18.09
2022-11-09T05:22:27.773Z,18.50
2022-11-09T05:23:29.934Z,17.64
2022-11-09T05:24:32.906Z,17.50
2022-11-09T05:25:35.048Z,19.20
2022-11-09T05:26:38.854Z,16.60
2022-11-09T05:27:41.522Z,16.80
2022-11-09T05:28:43.628Z,16.60
2022-11-09T05:29:45.828Z,13.40
2022-11-09T05:30:48.718Z,17.30
2022-11-09T05:31:52.553Z,16.50
2022-11-09T05:32:54.943Z,16.60
2022-11-09T05:33:58.312Z,18.70
2022-11-09T05:35:00.448Z,17.10
2022-11-09T05:36:02.551Z,17.90
2022-11-09T05:37:04.800Z,18.30
2022-11-09T05:38:07.088Z,16.10
2022-11-09T05:39:09.419Z,18.20
2022-11-09T05:40:12.439Z,12.70
2022-11-09T05:41:14.534Z,14.30
2022-11-09T05:42:17.160Z,16.30
2022-11-09T05:43:20.649Z,18.10
2022-11-09T05:44:23.058Z,16.50
2022-11-09T05:46:29.234Z,20.90
2022-11-09T05:47:35.227Z,16.90
2022-11-09T05:48:37.270Z,18.40
2022-11-09T05:49:39.475Z,17.60
2022-11-09T05:50:42.074Z,17.00
2022-11-09T05:51:47.172Z,18.20
2022-11-09T05:52:49.569Z,19.30
2022-11-09T05:53:51.885Z,18.80
2022-11-09T05:54:53.714Z,17.20
2022-11-09T05:55:55.558Z,14.89
2022-11-09T05:56:57.676Z,19.70
2022-11-09T05:57:59.470Z,19.00
2022-11-09T05:59:01.259Z,16.67
2022-11-09T06:00:08.537Z,17.11
2022-11-09T06:01:12.715Z,20.20
2022-11-09T06:02:14.830Z,18.20
2022-11-09T06:03:17.179Z,17.60
2022-11-09T06:04:19.682Z,18.70
2022-11-09T06:05:21.702Z,19.80
2022-11-09T06:06:23.803Z,16.70
2022-11-09T06:07:26.133Z,19.60
2022-11-09T06:08:28.386Z,15.60
2022-11-09T06:09:30.422Z,15.20
2022-11-09T06:10:32.650Z,18.70
2022-11-09T06:11:34.774Z,12.90
2022-11-09T06:12:36.863Z,17.50
2022-11-09T06:13:39.074Z,13.80
2022-11-09T06:14:41.176Z,14.60
2022-11-09T06:15:43.542Z,17.90
2022-11-09T06:16:45.740Z,17.60
2022-11-09T06:17:56.139Z,16.90
2022-11-09T06:19:01.368Z,17.50
2022-11-09T06:20:04.671Z,17.80
2022-11-09T06:21:06.910Z,16.70
2022-11-09T06:22:08.940Z,17.20
2022-11-09T06:23:10.917Z,14.90
2022-11-09T06:24:13.152Z,17.10
2022-11-09T06:25:15.458Z,18.50
2022-11-09T06:26:17.831Z,16.60
2022-11-09T06:27:19.942Z,18.80
2022-11-09T06:28:22.043Z,19.30
2022-11-09T06:29:24.168Z,15.20
2022-11-09T06:30:26.351Z,16.70
2022-11-09T06:31:28.374Z,16.70
2022-11-09T06:32:30.454Z,12.90
2022-11-09T06:33:33.545Z,17.10
2022-11-09T06:34:35.722Z,16.60
2022-11-09T06:35:37.713Z,9.50
2022-11-09T06:36:39.753Z,16.89
2022-11-09T06:37:41.921Z,17.10
2022-11-09T06:38:43.922Z,16.70
2022-11-09T06:39:47.086Z,17.80
2022-11-09T06:40:57.548Z,12.70
2022-11-09T06:42:00.091Z,14.70
2022-11-09T06:43:02.609Z,18.00
2022-11-09T06:44:05.820Z,17.80
2022-11-09T06:45:09.170Z,17.20
2022-11-09T06:46:11.934Z,17.70
2022-11-09T06:47:14.137Z,18.30
2022-11-09T06:48:17.348Z,16.30
2022-11-09T06:49:20.067Z,16.20
2022-11-09T06:50:22.173Z,16.30
2022-11-09T06:51:24.562Z,12.70
2022-11-09T06:52:27.710Z,17.60
2022-11-09T06:53:30.754Z,15.90
2022-11-09T06:54:32.915Z,16.90
2022-11-09T06:55:35.026Z,15.90
2022-11-09T06:56:37.231Z,16.80
2022-11-09T06:57:39.231Z,16.70
2022-11-09T06:58:41.318Z,17.00
2022-11-09T06:59:43.840Z,17.60
2022-11-09T07:00:49.494Z,18.00
2022-11-09T07:01:52.087Z,18.20
2022-11-09T07:02:54.814Z,14.60
2022-11-09T07:03:56.802Z,17.40
2022-11-09T07:04:59.300Z,15.90
2022-11-09T07:06:04.101Z,15.20
2022-11-09T07:07:07.386Z,18.90
2022-11-09T07:08:11.027Z,15.70
2022-11-09T07:09:14.111Z,15.90
2022-11-09T07:10:16.888Z,16.90
2022-11-09T07:11:18.916Z,17.90
2022-11-09T07:12:20.989Z,15.50
2022-11-09T07:13:24.055Z,17.10
2022-11-09T07:14:26.260Z,14.40
2022-11-09T07:15:28.377Z,16.60
2022-11-09T07:16:30.674Z,15.50
2022-11-09T07:17:33.187Z,12.40
2022-11-09T07:18:35.301Z,15.90
2022-11-09T07:19:37.417Z,15.80
2022-11-09T07:20:39.532Z,17.40
2022-11-09T07:21:42.100Z,15.40
2022-11-09T07:22:45.227Z,16.30
2022-11-09T07:23:48.110Z,15.10
2022-11-09T07:24:50.390Z,11.10
2022-11-09T07:25:53.633Z,18.60
2022-11-09T07:26:55.840Z,17.40
2022-11-09T07:28:04.615Z,16.80
2022-11-09T07:29:06.873Z,14.70
2022-11-09T07:30:12.420Z,15.70
2022-11-09T07:31:15.580Z,15.36
2022-11-09T07:32:18.190Z,15.80
2022-11-09T07:33:20.469Z,16.09
2022-11-09T07:34:23.422Z,15.10
2022-11-09T07:35:26.433Z,17.00
2022-11-09T07:36:29.561Z,13.60
2022-11-09T07:37:31.776Z,16.40
2022-11-09T07:38:33.825Z,18.20
2022-11-09T07:39:36.383Z,16.10
2022-11-09T07:40:38.576Z,13.40
2022-11-09T07:41:40.659Z,13.20
2022-11-09T07:42:42.767Z,14.10
2022-11-09T07:43:45.047Z,17.00
2022-11-09T07:44:48.481Z,14.60
2022-11-09T07:45:51.618Z,15.40
2022-11-09T07:46:53.878Z,17.40
2022-11-09T07:47:57.204Z,16.70
2022-11-09T07:48:59.791Z,17.70
2022-11-09T07:50:02.766Z,17.50
2022-11-09T07:51:05.762Z,16.20
2022-11-09T07:52:08.228Z,17.50
2022-11-09T07:53:12.745Z,16.10
2022-11-09T07:54:16.463Z,17.90
2022-11-09T07:55:18.770Z,16.10
2022-11-09T07:56:20.887Z,15.90
2022-11-09T07:57:23.496Z,16.70
2022-11-09T07:58:25.937Z,17.00
2022-11-09T07:59:28.979Z,15.80
2022-11-09T08:00:32.653Z,15.80
2022-11-09T08:01:35.491Z,15.30
2022-11-09T08:02:38.844Z,15.90
2022-11-09T08:03:41.561Z,14.80
2022-11-09T08:04:43.571Z,14.20
2022-11-09T08:05:46.728Z,14.40
2022-11-09T08:06:51.407Z,12.90
2022-11-09T08:09:07.533Z,16.70
2022-11-09T08:10:11.555Z,14.70
2022-11-09T08:11:14.827Z,17.50
2022-11-09T08:12:17.240Z,15.10
2022-11-09T08:13:19.573Z,13.50
2022-11-09T08:14:22.131Z,16.64
2022-11-09T08:15:25.113Z,15.64
2022-11-09T08:16:29.445Z,15.40
2022-11-09T08:17:32.070Z,16.00
2022-11-09T08:18:34.179Z,16.50
2022-11-09T08:19:36.271Z,16.30
2022-11-09T08:20:38.810Z,17.30
2022-11-09T08:21:40.787Z,13.70
2022-11-09T08:22:43.613Z,16.33
2022-11-09T08:23:45.670Z,15.27
2022-11-09T08:24:48.100Z,16.30
2022-11-09T08:25:50.507Z,14.20
2022-11-09T08:26:52.838Z,17.00
2022-11-09T08:27:57.286Z,17.00
2022-11-09T08:28:59.389Z,16.70
2022-11-09T08:30:01.472Z,14.70
2022-11-09T08:31:06.289Z,14.80
2022-11-09T08:32:08.558Z,18.10
2022-11-09T08:33:11.063Z,16.10
2022-11-09T08:34:13.174Z,10.10
2022-11-09T08:36:29.161Z,15.60
2022-11-09T08:37:33.540Z,15.30
2022-11-09T08:38:35.750Z,12.60
2022-11-09T08:39:37.863Z,14.20
2022-11-09T08:40:39.989Z,13.20
2022-11-09T08:41:42.678Z,16.10
2022-11-09T08:42:44.925Z,15.50
2022-11-09T08:43:47.017Z,14.70
2022-11-09T08:44:50.980Z,13.50
2022-11-09T08:45:53.543Z,14.20
2022-11-09T08:46:55.827Z,14.45
2022-11-09T08:47:58.374Z,10.50
2022-11-09T08:49:00.577Z,16.40
2022-11-09T08:50:03.683Z,15.40
2022-11-09T08:51:06.353Z,15.91
2022-11-09T08:52:08.567Z,12.80
2022-11-09T08:53:10.658Z,14.60
2022-11-09T08:54:13.044Z,16.30
2022-11-09T08:55:15.901Z,14.90
2022-11-09T08:56:18.443Z,13.60
2022-11-09T08:57:20.707Z,15.60
2022-11-09T08:58:24.262Z,16.10
2022-11-09T08:59:27.440Z,15.50
2022-11-09T09:00:30.938Z,13.80
2022-11-09T09:01:33.109Z,13.00
2022-11-09T09:02:35.313Z,12.00
2022-11-09T09:03:38.827Z,14.00
2022-11-09T09:04:43.683Z,12.70
2022-11-09T09:05:45.797Z,16.20
2022-11-09T09:06:48.162Z,14.90
2022-11-09T09:07:51.951Z,14.27
2022-11-09T09:08:54.131Z,14.60
2022-11-09T09:09:56.231Z,13.20
2022-11-09T09:11:06.978Z,15.10
2022-11-09T09:12:09.634Z,12.90
2022-11-09T09:13:11.731Z,13.90
2022-11-09T09:14:15.347Z,13.20
2022-11-09T09:15:17.795Z,13.40
2022-11-09T09:16:20.088Z,13.50
2022-11-09T09:17:22.285Z,15.00
2022-11-09T09:18:24.548Z,15.80
2022-11-09T09:19:26.766Z,12.50
2022-11-09T09:20:28.873Z,13.70
2022-11-09T09:21:31.455Z,14.80
2022-11-09T09:22:34.574Z,11.90
2022-11-09T09:23:37.954Z,14.40
2022-11-09T09:24:40.773Z,12.90
2022-11-09T09:25:42.764Z,13.50
2022-11-09T09:26:46.371Z,14.60
2022-11-09T09:27:48.726Z,13.80
2022-11-09T09:28:50.932Z,13.30
2022-11-09T09:29:53.048Z,10.80
2022-11-09T09:31:01.485Z,13.30
2022-11-09T09:32:04.432Z,12.60
2022-11-09T09:33:06.507Z,9.27
2022-11-09T09:34:08.825Z,15.70
2022-11-09T09:35:11.152Z,14.10
2022-11-09T09:36:16.404Z,12.10
2022-11-09T09:37:19.167Z,12.80
2022-11-09T09:38:22.261Z,14.00
2022-11-09T09:39:24.968Z,12.30
2022-11-09T09:40:38.187Z,12.30
2022-11-09T09:43:03.123Z,12.50
2022-11-09T09:44:15.298Z,10.90
2022-11-09T09:46:42.937Z,10.60
2022-11-09T09:49:11.762Z,0.40
2022-11-09T09:50:17.716Z,9.70
2022-11-09T09:51:38.511Z,13.20
2022-11-09T09:52:50.705Z,9.60
2022-11-09T09:53:51.296Z,12.10
2022-11-09T09:55:03.207Z,11.70
2022-11-09T09:56:36.259Z,12.20
2022-11-09T09:57:41.952Z,5.50
2022-11-09T09:58:45.633Z,11.70
2022-11-09T10:00:01.764Z,10.10
2022-11-09T10:01:22.868Z,9.90
2022-11-09T10:02:38.242Z,11.20
2022-11-09T10:03:44.354Z,10.60
2022-11-09T10:04:47.075Z,9.80
2022-11-09T10:07:38.773Z,12.30
2022-11-09T10:08:47.626Z,10.10
2022-11-09T14:17:20.215Z,20.00
2022-11-09T14:18:59.823Z,15.60
2022-11-09T14:20:41.290Z,17.00
2022-11-09T14:22:01.982Z,14.70
2022-11-09T14:23:25.372Z,15.70
2022-11-09T14:24:46.637Z,12.60
2022-11-09T14:26:09.223Z,14.90
2022-11-09T14:27:30.499Z,16.10
2022-11-09T14:28:51.408Z,14.50
2022-11-09T14:30:15.651Z,15.60
2022-11-09T14:31:44.960Z,14.20
2022-11-09T14:33:02.434Z,13.50
2022-11-09T14:34:23.376Z,9.50
2022-11-09T14:35:44.341Z,14.50
2022-11-09T14:37:06.036Z,12.90
2022-11-09T14:38:35.503Z,15.60
2022-11-09T14:39:57.121Z,14.60
2022-11-09T14:41:23.030Z,14.60
2022-11-09T14:44:17.315Z,11.90
2022-11-09T14:45:53.315Z,8.30
2022-11-09T14:47:15.935Z,13.00
2022-11-09T14:48:40.838Z,14.30
2022-11-09T14:50:00.558Z,13.10
2022-11-09T14:51:21.476Z,12.00
2022-11-09T14:52:42.074Z,11.20
2022-11-09T14:54:08.677Z,10.50
2022-11-09T14:55:29.935Z,11.90
2022-11-09T14:56:51.514Z,12.20
2022-11-09T14:58:12.543Z,11.40
2022-11-09T14:59:34.951Z,11.30
2022-11-09T15:01:16.870Z,12.20
2022-11-09T15:02:37.444Z,9.80
2022-11-09T15:04:10.887Z,13.50
2022-11-09T15:05:37.347Z,7.50
2022-11-09T15:08:19.083Z,11.10
2022-11-09T15:09:44.207Z,11.70
2022-11-09T15:11:05.230Z,11.50
2022-11-09T15:12:25.617Z,12.50
2022-11-09T15:13:46.194Z,9.20
2022-11-09T15:15:12.312Z,12.50
2022-11-09T15:16:33.290Z,13.60
2022-11-09T15:17:55.430Z,13.40
2022-11-09T15:19:30.960Z,10.50
2022-11-09T15:21:10.795Z,13.70
2022-11-09T15:22:50.531Z,12.40
2022-11-09T15:24:14.084Z,12.60
2022-11-09T15:25:36.485Z,13.90
2022-11-09T15:26:56.949Z,9.70
2022-11-09T15:28:26.518Z,11.80
2022-11-09T15:29:46.813Z,11.80
2022-11-09T15:31:13.877Z,13.20
2022-11-09T15:32:36.793Z,11.90
2022-11-09T15:33:59.923Z,8.60
2022-11-09T15:35:20.656Z,11.90
2022-11-09T15:36:45.065Z,12.30
2022-11-09T15:38:04.279Z,13.80
2022-11-09T15:39:25.064Z,15.80
2022-11-09T15:40:46.780Z,14.60
2022-11-09T15:43:22.007Z,14.10
2022-11-09T15:44:45.062Z,13.70
2022-11-09T15:46:06.434Z,9.10
2022-11-09T15:47:37.710Z,15.50
2022-11-09T15:50:17.847Z,14.20
2022-11-09T15:51:38.980Z,18.80
2022-11-09T15:53:00.886Z,21.60
2022-11-09T15:54:22.673Z,20.10
2022-11-09T15:55:44.363Z,20.40
2022-11-09T15:57:05.385Z,23.30
2022-11-09T15:58:26.073Z,28.90
2022-11-09T15:59:47.824Z,33.40
2022-11-09T16:01:08.703Z,43.70
2022-11-09T16:02:29.806Z,46.80
2022-11-09T16:03:50.542Z,49.70
2022-11-09T16:05:11.791Z,54.30
2022-11-09T16:06:32.666Z,62.30
2022-11-09T16:07:55.053Z,65.00
2022-11-09T16:09:15.582Z,60.50
2022-11-09T16:10:37.671Z,59.90
2022-11-09T16:11:58.503Z,62.20
2022-11-09T16:13:19.180Z,54.20
2022-11-09T16:14:40.013Z,54.00
2022-11-09T16:16:03.067Z,53.20
2022-11-09T16:17:23.705Z,51.30
2022-11-09T16:18:44.464Z,52.50
2022-11-09T16:20:07.089Z,51.50
2022-11-09T16:21:28.829Z,49.00
2022-11-09T16:22:50.061Z,48.90
2022-11-09T16:24:10.847Z,49.30
2022-11-09T16:25:32.742Z,46.40
2022-11-09T16:26:53.789Z,45.70
2022-11-09T16:28:14.626Z,45.70
2022-11-09T16:29:36.052Z,42.40
2022-11-09T16:30:56.785Z,44.80
2022-11-09T16:32:18.674Z,41.90
2022-11-09T16:33:40.475Z,42.10
2022-11-09T16:35:23.839Z,41.70
2022-11-09T16:36:24.198Z,39.80
2022-11-09T16:37:44.605Z,38.60
2022-11-09T16:39:07.748Z,37.80
2022-11-09T16:40:28.570Z,34.80
2022-11-09T16:41:50.742Z,35.90
2022-11-09T16:43:12.295Z,39.40
2022-11-09T16:44:35.850Z,36.00
2022-11-09T16:45:57.007Z,36.20
2022-11-09T16:47:18.724Z,34.60
2022-11-09T16:48:41.678Z,35.10
2022-11-09T16:50:03.529Z,35.50
2022-11-09T16:51:24.177Z,34.80
2022-11-09T16:52:45.880Z,34.90
2022-11-09T16:54:07.835Z,32.40
2022-11-09T16:55:29.749Z,34.10
2022-11-09T16:56:51.788Z,33.00
2022-11-09T16:58:15.043Z,30.50
2022-11-09T16:59:37.363Z,33.60
2022-11-09T17:01:17.738Z,32.70
2022-11-09T17:02:26.234Z,32.00
2022-11-09T17:03:47.395Z,33.10
2022-11-09T17:05:09.153Z,32.60
2022-11-09T17:07:46.768Z,31.10
2022-11-09T17:09:07.176Z,30.40
2022-11-09T17:10:28.329Z,30.00
2022-11-09T17:11:49.072Z,31.30
2022-11-09T17:13:11.568Z,30.90
2022-11-09T17:14:33.108Z,30.80
2022-11-09T17:15:54.571Z,30.80
2022-11-09T17:17:21.199Z,30.00
2022-11-09T17:18:39.643Z,31.20
2022-11-09T17:20:02.494Z,32.00
2022-11-09T17:21:26.502Z,31.80
2022-11-09T17:22:49.653Z,30.00
2022-11-09T17:24:11.422Z,32.90
2022-11-09T17:25:32.606Z,27.20
2022-11-09T17:26:53.589Z,30.30
2022-11-09T17:28:14.400Z,31.60
2022-11-09T17:29:35.260Z,31.40
2022-11-09T17:30:55.673Z,30.90
2022-11-09T17:32:17.127Z,32.40
2022-11-09T17:33:38.618Z,27.90
2022-11-09T17:35:00.451Z,31.70
2022-11-09T17:36:35.413Z,31.10
2022-11-09T17:37:44.136Z,31.60
2022-11-09T17:39:06.319Z,29.70
2022-11-09T17:40:27.123Z,31.00
2022-11-09T17:41:47.715Z,30.00
2022-11-09T17:43:08.442Z,30.90
2022-11-09T17:44:29.588Z,29.00
2022-11-09T17:45:50.212Z,31.20
2022-11-09T17:47:12.685Z,30.20
2022-11-09T17:48:34.087Z,31.30
2022-11-09T17:49:54.796Z,30.10
2022-11-09T17:51:17.522Z,31.90
2022-11-09T17:52:38.019Z,30.50
2022-11-09T17:53:59.054Z,27.90
2022-11-09T17:55:21.083Z,27.10
2022-11-09T17:56:43.288Z,30.80
2022-11-09T17:58:04.846Z,26.90
2022-11-09T17:59:26.275Z,28.00
2022-11-09T18:00:47.571Z,29.30
2022-11-09T18:02:10.154Z,28.40
2022-11-09T18:03:33.329Z,29.60
2022-11-09T18:04:55.124Z,29.20
2022-11-09T18:07:29.929Z,27.20
2022-11-09T18:09:19.397Z,31.30
2022-11-09T18:10:16.354Z,30.60
2022-11-09T18:11:37.719Z,31.00
2022-11-09T18:12:59.690Z,31.30
2022-11-09T18:14:20.355Z,30.10
2022-11-09T18:15:41.365Z,31.30
2022-11-09T18:17:02.989Z,30.80
2022-11-09T18:18:24.144Z,23.50
2022-11-09T18:19:44.772Z,30.50
2022-11-09T18:22:23.268Z,30.00
2022-11-09T18:23:45.120Z,27.50
2022-11-09T18:25:06.449Z,31.20
2022-11-09T18:26:27.179Z,30.80
2022-11-09T18:27:48.618Z,27.90
2022-11-09T18:29:09.194Z,30.00
2022-11-09T18:30:29.950Z,30.10
2022-11-09T18:31:51.845Z,28.30
2022-11-09T21:25:52.814Z,37.20
2022-11-09T21:27:13.311Z,38.00
2022-11-09T21:28:35.352Z,32.80
2022-11-09T21:29:56.318Z,35.40
2022-11-09T21:31:17.122Z,35.70
2022-11-09T21:32:39.091Z,36.10
2022-11-09T21:34:00.569Z,36.40
2022-11-09T21:35:22.048Z,36.20
2022-11-09T21:36:43.163Z,33.00
2022-11-09T21:38:04.211Z,35.90
2022-11-09T21:39:25.256Z,36.50
2022-11-09T21:40:47.112Z,33.90
2022-11-09T21:42:07.888Z,33.60
2022-11-09T21:43:29.727Z,34.60
2022-11-09T21:44:50.451Z,35.60
2022-11-09T21:46:12.743Z,33.80
2022-11-09T21:47:33.705Z,35.50
2022-11-09T21:48:54.170Z,35.20
2022-11-09T21:50:16.277Z,33.90
2022-11-09T21:51:37.217Z,33.30
2022-11-09T21:52:57.968Z,34.40
2022-11-09T21:54:19.648Z,32.40
2022-11-09T21:55:40.533Z,35.70
2022-11-09T21:57:01.666Z,33.20
2022-11-09T21:58:22.948Z,34.80
2022-11-09T21:59:44.888Z,29.80
2022-11-09T22:01:06.644Z,31.60
2022-11-09T22:02:27.329Z,33.00
2022-11-09T22:03:49.422Z,32.60
2022-11-09T22:05:11.358Z,34.70
2022-11-09T22:06:35.128Z,34.20
2022-11-09T22:07:55.764Z,35.00
2022-11-09T22:09:17.055Z,36.20
2022-11-09T22:10:37.959Z,33.60
2022-11-09T22:11:58.776Z,34.80
2022-11-09T22:13:20.168Z,35.80
2022-11-09T22:14:41.827Z,37.20